sensor_id;sensor_type;location;lat;lon;timestamp;temperature;humidity
23669;DHT22;12011;47.422;15.018;2023-12-29T00:02:10;-2.20;99.90
23669;DHT22;12011;47.422;15.018;2023-12-29T00:04:40;-2.20;99.90
23669;DHT22;12011;47.422;15.018;2023-12-29T00:07:22;-2.30;99.90
23669;DHT22;12011;47.422;15.018;2023-12-29T00:09:54;-1.80;99.90
23669;DHT22;12011;47.422;15.018;2023-12-29T00:12:27;-2.30;99.90
23669;DHT22;12011;47.422;15.018;2023-12-29T00:14:57;-2.50;99.90
23669;DHT22;12011;47.422;15.018;2023-12-29T00:17:29;-3.30;99.90
23669;DHT22;12011;47.422;15.018;2023-12-29T00:20:11;-2.70;99.90
23669;DHT22;12011;47.422;15.018;2023-12-29T00:22:42;-2.70;99.90
23669;DHT22;12011;47.422;15.018;2023-12-29T00:25:36;-2.70;99.90
23669;DHT22;12011;47.422;15.018;2023-12-29T00:28:18;-2.30;99.90
23669;DHT22;12011;47.422;15.018;2023-12-29T00:30:51;-2.70;99.90
23669;DHT22;12011;47.422;15.018;2023-12-29T00:33:25;-2.40;99.90
23669;DHT22;12011;47.422;15.018;2023-12-29T00:35:56;-2.20;99.90
23669;DHT22;12011;47.422;15.018;2023-12-29T00:38:33;-2.60;99.90
23669;DHT22;12011;47.422;15.018;2023-12-29T00:41:06;-2.80;99.90
23669;DHT22;12011;47.422;15.018;2023-12-29T00:43:55;-2.80;99.90
23669;DHT22;12011;47.422;15.018;2023-12-29T00:46:27;-3.30;99.90
23669;DHT22;12011;47.422;15.018;2023-12-29T00:48:57;-2.80;99.90
23669;DHT22;12011;47.422;15.018;2023-12-29T00:51:29;-2.80;99.90
23669;DHT22;12011;47.422;15.018;2023-12-29T00:54:09;-2.90;99.90
23669;DHT22;12011;47.422;15.018;2023-12-29T00:56:42;-2.90;99.90
23669;DHT22;12011;47.422;15.018;2023-12-29T00:59:19;-2.90;99.90
23669;DHT22;12011;47.422;15.018;2023-12-29T01:01:51;-1.90;99.90
23669;DHT22;12011;47.422;15.018;2023-12-29T01:04:23;-2.60;99.90
23669;DHT22;12011;47.422;15.018;2023-12-29T01:07:03;-2.70;99.90
23669;DHT22;12011;47.422;15.018;2023-12-29T01:09:38;-2.40;99.90
23669;DHT22;12011;47.422;15.018;2023-12-29T01:12:11;-3.10;99.90
23669;DHT22;12011;47.422;15.018;2023-12-29T01:14:58;-3.20;99.90
23669;DHT22;12011;47.422;15.018;2023-12-29T01:17:32;-3.30;99.90
23669;DHT22;12011;47.422;15.018;2023-12-29T01:20:09;-2.60;99.90
23669;DHT22;12011;47.422;15.018;2023-12-29T01:22:39;-3.50;99.90
23669;DHT22;12011;47.422;15.018;2023-12-29T01:25:18;-3.50;99.90
23669;DHT22;12011;47.422;15.018;2023-12-29T01:27:52;-2.20;99.90
23669;DHT22;12011;47.422;15.018;2023-12-29T01:30:25;-3.30;99.90
23669;DHT22;12011;47.422;15.018;2023-12-29T01:32:59;-2.60;99.90
23669;DHT22;12011;47.422;15.018;2023-12-29T01:35:33;-3.10;99.90
23669;DHT22;12011;47.422;15.018;2023-12-29T01:38:08;-2.80;99.90
23669;DHT22;12011;47.422;15.018;2023-12-29T01:40:47;-3.40;99.90
23669;DHT22;12011;47.422;15.018;2023-12-29T01:43:27;-3.40;99.90
23669;DHT22;12011;47.422;15.018;2023-12-29T01:46:07;-3.40;99.90
23669;DHT22;12011;47.422;15.018;2023-12-29T01:48:51;-3.40;99.90
23669;DHT22;12011;47.422;15.018;2023-12-29T01:51:26;-3.40;99.90
23669;DHT22;12011;47.422;15.018;2023-12-29T01:54:02;-3.00;99.90
23669;DHT22;12011;47.422;15.018;2023-12-29T01:56:38;-2.80;99.90
23669;DHT22;12011;47.422;15.018;2023-12-29T01:59:10;-3.00;99.90
23669;DHT22;12011;47.422;15.018;2023-12-29T02:01:49;-3.20;99.90
23669;DHT22;12011;47.422;15.018;2023-12-29T02:04:25;-2.80;99.90
23669;DHT22;12011;47.422;15.018;2023-12-29T02:07:02;-4.30;99.90
23669;DHT22;12011;47.422;15.018;2023-12-29T02:09:36;-3.90;99.90
23669;DHT22;12011;47.422;15.018;2023-12-29T02:12:15;-4.00;99.90
23669;DHT22;12011;47.422;15.018;2023-12-29T02:14:52;-3.50;99.90
23669;DHT22;12011;47.422;15.018;2023-12-29T02:17:30;-4.00;99.90
23669;DHT22;12011;47.422;15.018;2023-12-29T02:20:09;-4.20;99.90
23669;DHT22;12011;47.422;15.018;2023-12-29T02:22:42;-4.10;99.90
23669;DHT22;12011;47.422;15.018;2023-12-29T02:25:16;-4.10;99.90
23669;DHT22;12011;47.422;15.018;2023-12-29T02:28:02;-4.00;99.90
23669;DHT22;12011;47.422;15.018;2023-12-29T02:30:46;-2.60;99.90
23669;DHT22;12011;47.422;15.018;2023-12-29T02:33:25;-3.70;99.90
23669;DHT22;12011;47.422;15.018;2023-12-29T02:36:10;-3.80;99.90
23669;DHT22;12011;47.422;15.018;2023-12-29T02:38:46;-3.70;99.90
23669;DHT22;12011;47.422;15.018;2023-12-29T02:41:27;-3.40;99.90
23669;DHT22;12011;47.422;15.018;2023-12-29T02:43:57;-4.80;99.90
23669;DHT22;12011;47.422;15.018;2023-12-29T02:46:28;-3.50;99.90
23669;DHT22;12011;47.422;15.018;2023-12-29T02:49:06;-3.60;99.90
23669;DHT22;12011;47.422;15.018;2023-12-29T02:51:45;-3.70;99.90
23669;DHT22;12011;47.422;15.018;2023-12-29T02:54:46;-3.50;99.90
23669;DHT22;12011;47.422;15.018;2023-12-29T02:57:20;-3.20;99.90
23669;DHT22;12011;47.422;15.018;2023-12-29T02:59:57;-3.70;99.90
23669;DHT22;12011;47.422;15.018;2023-12-29T03:02:27;-3.00;99.90
23669;DHT22;12011;47.422;15.018;2023-12-29T03:05:07;-3.50;99.90
23669;DHT22;12011;47.422;15.018;2023-12-29T03:07:37;-3.60;99.90
23669;DHT22;12011;47.422;15.018;2023-12-29T03:10:10;-3.60;99.90
23669;DHT22;12011;47.422;15.018;2023-12-29T03:12:47;-3.50;99.90
23669;DHT22;12011;47.422;15.018;2023-12-29T03:15:24;-3.60;99.90
23669;DHT22;12011;47.422;15.018;2023-12-29T03:17:56;-3.60;99.90
23669;DHT22;12011;47.422;15.018;2023-12-29T03:20:31;-3.40;99.90
23669;DHT22;12011;47.422;15.018;2023-12-29T03:23:02;-4.00;99.90
23669;DHT22;12011;47.422;15.018;2023-12-29T03:25:37;-4.10;99.90
23669;DHT22;12011;47.422;15.018;2023-12-29T03:28:14;-4.10;99.90
23669;DHT22;12011;47.422;15.018;2023-12-29T03:30:45;-4.00;99.90
23669;DHT22;12011;47.422;15.018;2023-12-29T03:33:16;-4.10;99.90
23669;DHT22;12011;47.422;15.018;2023-12-29T03:35:57;-4.00;99.90
23669;DHT22;12011;47.422;15.018;2023-12-29T03:38:29;-3.90;99.90
23669;DHT22;12011;47.422;15.018;2023-12-29T03:41:01;-3.90;99.90
23669;DHT22;12011;47.422;15.018;2023-12-29T03:43:40;-3.80;99.90
23669;DHT22;12011;47.422;15.018;2023-12-29T03:46:20;-3.80;99.90
23669;DHT22;12011;47.422;15.018;2023-12-29T03:48:50;-4.00;99.90
23669;DHT22;12011;47.422;15.018;2023-12-29T03:51:20;-4.10;99.90
23669;DHT22;12011;47.422;15.018;2023-12-29T03:53:51;-4.20;99.90
23669;DHT22;12011;47.422;15.018;2023-12-29T03:56:27;-4.20;99.90
23669;DHT22;12011;47.422;15.018;2023-12-29T03:59:01;-4.20;99.90
23669;DHT22;12011;47.422;15.018;2023-12-29T04:01:35;-4.00;99.90
23669;DHT22;12011;47.422;15.018;2023-12-29T04:04:07;-3.80;99.90
23669;DHT22;12011;47.422;15.018;2023-12-29T04:06:39;-2.90;99.90
23669;DHT22;12011;47.422;15.018;2023-12-29T04:09:12;-3.20;99.90
23669;DHT22;12011;47.422;15.018;2023-12-29T04:11:45;-2.80;99.90
23669;DHT22;12011;47.422;15.018;2023-12-29T04:14:18;-3.60;99.90
23669;DHT22;12011;47.422;15.018;2023-12-29T04:17:08;-4.00;99.90
23669;DHT22;12011;47.422;15.018;2023-12-29T04:19:44;-4.10;99.90
23669;DHT22;12011;47.422;15.018;2023-12-29T04:22:25;-4.00;99.90
23669;DHT22;12011;47.422;15.018;2023-12-29T04:24:55;-3.90;99.90
23669;DHT22;12011;47.422;15.018;2023-12-29T04:27:27;-3.90;99.90
23669;DHT22;12011;47.422;15.018;2023-12-29T04:30:00;-2.70;99.90
23669;DHT22;12011;47.422;15.018;2023-12-29T04:32:31;-3.80;99.90
23669;DHT22;12011;47.422;15.018;2023-12-29T04:35:04;-3.60;99.90
23669;DHT22;12011;47.422;15.018;2023-12-29T04:37:48;-4.00;99.90
23669;DHT22;12011;47.422;15.018;2023-12-29T04:40:18;-4.10;99.90
23669;DHT22;12011;47.422;15.018;2023-12-29T04:42:51;-3.70;99.90
23669;DHT22;12011;47.422;15.018;2023-12-29T04:45:38;-3.40;99.90
23669;DHT22;12011;47.422;15.018;2023-12-29T04:48:14;-4.00;99.90
23669;DHT22;12011;47.422;15.018;2023-12-29T04:50:54;-3.60;99.90
23669;DHT22;12011;47.422;15.018;2023-12-29T04:53:25;-3.40;99.90
23669;DHT22;12011;47.422;15.018;2023-12-29T04:55:58;-3.90;99.90
23669;DHT22;12011;47.422;15.018;2023-12-29T04:58:29;-4.20;99.90
23669;DHT22;12011;47.422;15.018;2023-12-29T05:01:04;-4.20;99.90
23669;DHT22;12011;47.422;15.018;2023-12-29T05:03:41;-4.10;99.90
23669;DHT22;12011;47.422;15.018;2023-12-29T05:06:16;-3.60;99.90
23669;DHT22;12011;47.422;15.018;2023-12-29T05:08:51;-4.00;99.90
23669;DHT22;12011;47.422;15.018;2023-12-29T05:11:24;-4.00;99.90
23669;DHT22;12011;47.422;15.018;2023-12-29T05:13:54;-4.00;99.90
23669;DHT22;12011;47.422;15.018;2023-12-29T05:16:28;-4.00;99.90
23669;DHT22;12011;47.422;15.018;2023-12-29T05:19:08;-4.00;99.90
23669;DHT22;12011;47.422;15.018;2023-12-29T05:21:48;-3.30;99.90
23669;DHT22;12011;47.422;15.018;2023-12-29T05:24:34;-4.00;99.90
23669;DHT22;12011;47.422;15.018;2023-12-29T05:27:07;-4.30;99.90
23669;DHT22;12011;47.422;15.018;2023-12-29T05:29:40;-4.30;99.90
23669;DHT22;12011;47.422;15.018;2023-12-29T05:32:26;-4.70;99.90
23669;DHT22;12011;47.422;15.018;2023-12-29T05:35:11;-4.40;99.90
23669;DHT22;12011;47.422;15.018;2023-12-29T05:37:52;-4.40;99.90
23669;DHT22;12011;47.422;15.018;2023-12-29T05:40:22;-4.40;99.90
23669;DHT22;12011;47.422;15.018;2023-12-29T05:43:05;-4.40;99.90
23669;DHT22;12011;47.422;15.018;2023-12-29T05:45:44;-4.50;99.90
23669;DHT22;12011;47.422;15.018;2023-12-29T05:48:17;-4.50;99.90
23669;DHT22;12011;47.422;15.018;2023-12-29T05:50:46;-4.50;99.90
23669;DHT22;12011;47.422;15.018;2023-12-29T05:53:16;-4.60;99.90
23669;DHT22;12011;47.422;15.018;2023-12-29T05:55:46;-4.60;99.90
23669;DHT22;12011;47.422;15.018;2023-12-29T05:58:16;-4.60;99.90
23669;DHT22;12011;47.422;15.018;2023-12-29T06:00:46;-4.60;99.90
23669;DHT22;12011;47.422;15.018;2023-12-29T06:03:18;-4.70;99.90
23669;DHT22;12011;47.422;15.018;2023-12-29T06:05:48;-4.70;99.90
23669;DHT22;12011;47.422;15.018;2023-12-29T06:08:17;-4.70;99.90
23669;DHT22;12011;47.422;15.018;2023-12-29T06:10:47;-4.60;99.90
23669;DHT22;12011;47.422;15.018;2023-12-29T06:13:17;-4.50;99.90
23669;DHT22;12011;47.422;15.018;2023-12-29T06:15:47;-4.60;99.90
23669;DHT22;12011;47.422;15.018;2023-12-29T06:18:20;-4.60;99.90
23669;DHT22;12011;47.422;15.018;2023-12-29T06:20:49;-4.60;99.90
23669;DHT22;12011;47.422;15.018;2023-12-29T06:23:19;-4.50;99.90
23669;DHT22;12011;47.422;15.018;2023-12-29T06:25:49;-4.50;99.90
23669;DHT22;12011;47.422;15.018;2023-12-29T06:28:19;-4.50;99.90
23669;DHT22;12011;47.422;15.018;2023-12-29T06:30:48;-4.50;99.90
23669;DHT22;12011;47.422;15.018;2023-12-29T06:33:21;-4.50;99.90
23669;DHT22;12011;47.422;15.018;2023-12-29T06:35:50;-4.50;99.90
23669;DHT22;12011;47.422;15.018;2023-12-29T06:38:20;-4.50;99.90
23669;DHT22;12011;47.422;15.018;2023-12-29T06:40:50;-4.50;99.90
23669;DHT22;12011;47.422;15.018;2023-12-29T06:43:20;-4.60;99.90
23669;DHT22;12011;47.422;15.018;2023-12-29T06:45:49;-4.70;99.90
23669;DHT22;12011;47.422;15.018;2023-12-29T06:48:22;-4.80;99.90
23669;DHT22;12011;47.422;15.018;2023-12-29T06:50:52;-4.80;99.90
23669;DHT22;12011;47.422;15.018;2023-12-29T06:53:22;-4.80;99.90
23669;DHT22;12011;47.422;15.018;2023-12-29T06:55:54;-4.70;99.90
23669;DHT22;12011;47.422;15.018;2023-12-29T06:58:24;-4.70;99.90
23669;DHT22;12011;47.422;15.018;2023-12-29T07:00:53;-4.70;99.90
23669;DHT22;12011;47.422;15.018;2023-12-29T07:03:26;-5.20;99.90
23669;DHT22;12011;47.422;15.018;2023-12-29T07:05:58;-4.60;99.90
23669;DHT22;12011;47.422;15.018;2023-12-29T07:08:29;-4.50;99.90
23669;DHT22;12011;47.422;15.018;2023-12-29T07:11:00;-4.40;99.90
23669;DHT22;12011;47.422;15.018;2023-12-29T07:13:30;-4.40;99.90
23669;DHT22;12011;47.422;15.018;2023-12-29T07:16:03;-4.30;99.90
23669;DHT22;12011;47.422;15.018;2023-12-29T07:18:36;-4.30;99.90
23669;DHT22;12011;47.422;15.018;2023-12-29T07:21:26;-4.30;99.90
23669;DHT22;12011;47.422;15.018;2023-12-29T07:24:16;-4.30;99.90
23669;DHT22;12011;47.422;15.018;2023-12-29T07:26:52;-4.20;99.90
23669;DHT22;12011;47.422;15.018;2023-12-29T07:29:22;-4.00;99.90
23669;DHT22;12011;47.422;15.018;2023-12-29T07:31:52;-4.00;99.90
23669;DHT22;12011;47.422;15.018;2023-12-29T07:34:24;-4.10;99.90
23669;DHT22;12011;47.422;15.018;2023-12-29T07:37:15;-4.20;99.90
23669;DHT22;12011;47.422;15.018;2023-12-29T07:40:09;-4.20;99.90
23669;DHT22;12011;47.422;15.018;2023-12-29T07:43:02;-4.00;99.90
23669;DHT22;12011;47.422;15.018;2023-12-29T07:45:55;-3.90;99.90
23669;DHT22;12011;47.422;15.018;2023-12-29T07:48:45;-1.10;99.90
23669;DHT22;12011;47.422;15.018;2023-12-29T07:51:39;1.50;99.90
23669;DHT22;12011;47.422;15.018;2023-12-29T07:54:30;3.70;99.90
23669;DHT22;12011;47.422;15.018;2023-12-29T07:56:59;4.70;99.90
23669;DHT22;12011;47.422;15.018;2023-12-29T07:59:29;5.70;99.90
23669;DHT22;12011;47.422;15.018;2023-12-29T08:01:58;6.40;99.90
23669;DHT22;12011;47.422;15.018;2023-12-29T08:04:46;7.00;99.90
23669;DHT22;12011;47.422;15.018;2023-12-29T08:07:25;7.80;99.90
23669;DHT22;12011;47.422;15.018;2023-12-29T08:10:13;8.40;71.40
23669;DHT22;12011;47.422;15.018;2023-12-29T08:13:03;8.80;67.20
23669;DHT22;12011;47.422;15.018;2023-12-29T08:15:55;9.00;61.50
23669;DHT22;12011;47.422;15.018;2023-12-29T08:18:45;9.00;62.00
23669;DHT22;12011;47.422;15.018;2023-12-29T08:21:36;9.30;58.80
23669;DHT22;12011;47.422;15.018;2023-12-29T08:24:28;9.40;59.10
23669;DHT22;12011;47.422;15.018;2023-12-29T08:27:23;9.90;56.50
23669;DHT22;12011;47.422;15.018;2023-12-29T08:30:14;9.80;54.60
23669;DHT22;12011;47.422;15.018;2023-12-29T08:33:04;9.70;54.40
23669;DHT22;12011;47.422;15.018;2023-12-29T08:35:54;9.60;55.40
23669;DHT22;12011;47.422;15.018;2023-12-29T08:38:47;9.80;53.90
23669;DHT22;12011;47.422;15.018;2023-12-29T08:41:42;10.20;53.30
23669;DHT22;12011;47.422;15.018;2023-12-29T08:44:32;10.90;53.40
23669;DHT22;12011;47.422;15.018;2023-12-29T08:47:22;10.70;53.00
23669;DHT22;12011;47.422;15.018;2023-12-29T08:50:11;10.70;51.50
23669;DHT22;12011;47.422;15.018;2023-12-29T08:53:02;9.20;53.10
23669;DHT22;12011;47.422;15.018;2023-12-29T08:55:52;8.60;55.10
23669;DHT22;12011;47.422;15.018;2023-12-29T08:58:44;8.10;60.70
23669;DHT22;12011;47.422;15.018;2023-12-29T09:01:34;7.80;61.20
23669;DHT22;12011;47.422;15.018;2023-12-29T09:04:24;7.90;61.90
23669;DHT22;12011;47.422;15.018;2023-12-29T09:07:14;7.80;62.10
23669;DHT22;12011;47.422;15.018;2023-12-29T09:10:05;6.80;69.20
23669;DHT22;12011;47.422;15.018;2023-12-29T09:12:58;5.50;84.20
23669;DHT22;12011;47.422;15.018;2023-12-29T09:15:50;4.10;96.50
23669;DHT22;12011;47.422;15.018;2023-12-29T09:18:40;3.10;99.90
23669;DHT22;12011;47.422;15.018;2023-12-29T09:21:30;2.50;99.90
23669;DHT22;12011;47.422;15.018;2023-12-29T09:24:20;2.60;99.90
23669;DHT22;12011;47.422;15.018;2023-12-29T09:27:10;2.60;99.90
23669;DHT22;12011;47.422;15.018;2023-12-29T09:30:00;2.60;99.90
23669;DHT22;12011;47.422;15.018;2023-12-29T09:32:53;3.00;99.90
23669;DHT22;12011;47.422;15.018;2023-12-29T09:35:43;3.00;99.90
23669;DHT22;12011;47.422;15.018;2023-12-29T09:38:33;3.10;99.90
23669;DHT22;12011;47.422;15.018;2023-12-29T09:41:24;3.20;99.90
23669;DHT22;12011;47.422;15.018;2023-12-29T09:44:17;3.20;99.90
23669;DHT22;12011;47.422;15.018;2023-12-29T09:47:12;3.00;99.90
23669;DHT22;12011;47.422;15.018;2023-12-29T09:50:07;3.20;99.90
23669;DHT22;12011;47.422;15.018;2023-12-29T09:53:02;3.00;99.90
23669;DHT22;12011;47.422;15.018;2023-12-29T09:55:55;2.80;99.90
23669;DHT22;12011;47.422;15.018;2023-12-29T09:58:48;3.00;99.90
23669;DHT22;12011;47.422;15.018;2023-12-29T10:01:41;3.10;99.90
23669;DHT22;12011;47.422;15.018;2023-12-29T10:04:34;3.10;99.90
23669;DHT22;12011;47.422;15.018;2023-12-29T10:07:31;2.90;99.90
23669;DHT22;12011;47.422;15.018;2023-12-29T10:10:22;2.70;99.90
23669;DHT22;12011;47.422;15.018;2023-12-29T10:13:14;2.40;99.90
23669;DHT22;12011;47.422;15.018;2023-12-29T10:16:11;2.40;99.90
23669;DHT22;12011;47.422;15.018;2023-12-29T10:19:13;2.30;99.90
23669;DHT22;12011;47.422;15.018;2023-12-29T10:22:14;2.30;99.90
23669;DHT22;12011;47.422;15.018;2023-12-29T10:25:11;2.30;99.90
23669;DHT22;12011;47.422;15.018;2023-12-29T10:28:02;2.40;99.90
23669;DHT22;12011;47.422;15.018;2023-12-29T10:30:52;2.60;99.90
23669;DHT22;12011;47.422;15.018;2023-12-29T10:33:42;2.80;99.90
23669;DHT22;12011;47.422;15.018;2023-12-29T10:36:46;3.00;99.90
23669;DHT22;12011;47.422;15.018;2023-12-29T10:39:37;3.30;99.90
23669;DHT22;12011;47.422;15.018;2023-12-29T10:42:30;3.70;99.90
23669;DHT22;12011;47.422;15.018;2023-12-29T10:45:21;3.90;99.90
23669;DHT22;12011;47.422;15.018;2023-12-29T10:48:11;4.20;99.90
23669;DHT22;12011;47.422;15.018;2023-12-29T10:51:02;4.40;99.90
23669;DHT22;12011;47.422;15.018;2023-12-29T10:53:55;4.60;99.90
23669;DHT22;12011;47.422;15.018;2023-12-29T10:56:45;4.60;99.90
23669;DHT22;12011;47.422;15.018;2023-12-29T10:59:38;4.60;99.90
23669;DHT22;12011;47.422;15.018;2023-12-29T11:02:29;4.50;99.90
23669;DHT22;12011;47.422;15.018;2023-12-29T11:05:25;4.20;99.90
23669;DHT22;12011;47.422;15.018;2023-12-29T11:07:55;4.20;99.90
23669;DHT22;12011;47.422;15.018;2023-12-29T11:10:25;4.20;99.90
23669;DHT22;12011;47.422;15.018;2023-12-29T11:12:56;4.40;99.90
23669;DHT22;12011;47.422;15.018;2023-12-29T11:15:29;4.80;99.90
23669;DHT22;12011;47.422;15.018;2023-12-29T11:17:59;5.20;99.90
23669;DHT22;12011;47.422;15.018;2023-12-29T11:20:29;5.30;99.90
23669;DHT22;12011;47.422;15.018;2023-12-29T11:22:59;5.40;99.90
23669;DHT22;12011;47.422;15.018;2023-12-29T11:25:30;5.60;99.90
23669;DHT22;12011;47.422;15.018;2023-12-29T11:28:00;5.70;99.90
23669;DHT22;12011;47.422;15.018;2023-12-29T11:30:33;5.90;99.90
23669;DHT22;12011;47.422;15.018;2023-12-29T11:33:10;6.20;99.90
23669;DHT22;12011;47.422;15.018;2023-12-29T11:35:47;6.30;99.90
23669;DHT22;12011;47.422;15.018;2023-12-29T11:38:31;6.30;99.90
23669;DHT22;12011;47.422;15.018;2023-12-29T11:41:13;6.50;99.90
23669;DHT22;12011;47.422;15.018;2023-12-29T11:43:56;6.60;95.00
23669;DHT22;12011;47.422;15.018;2023-12-29T11:46:36;6.40;94.70
23669;DHT22;12011;47.422;15.018;2023-12-29T11:49:09;6.10;96.00
23669;DHT22;12011;47.422;15.018;2023-12-29T11:51:41;5.90;98.80
23669;DHT22;12011;47.422;15.018;2023-12-29T11:54:21;5.80;98.30
23669;DHT22;12011;47.422;15.018;2023-12-29T11:57:10;5.80;95.80
23669;DHT22;12011;47.422;15.018;2023-12-29T12:00:03;6.10;98.00
23669;DHT22;12011;47.422;15.018;2023-12-29T12:03:01;6.50;92.20
23669;DHT22;12011;47.422;15.018;2023-12-29T12:05:51;6.90;90.10
23669;DHT22;12011;47.422;15.018;2023-12-29T12:08:30;7.30;80.10
23669;DHT22;12011;47.422;15.018;2023-12-29T12:14:46;6.80;88.00
23669;DHT22;12011;47.422;15.018;2023-12-29T12:17:31;6.60;92.00
23669;DHT22;12011;47.422;15.018;2023-12-29T12:20:08;6.40;95.40
23669;DHT22;12011;47.422;15.018;2023-12-29T12:22:38;6.30;97.20
23669;DHT22;12011;47.422;15.018;2023-12-29T12:25:11;6.20;96.00
23669;DHT22;12011;47.422;15.018;2023-12-29T12:27:41;6.20;96.70
23669;DHT22;12011;47.422;15.018;2023-12-29T12:30:18;6.20;95.30
23669;DHT22;12011;47.422;15.018;2023-12-29T12:32:57;6.10;99.90
23669;DHT22;12011;47.422;15.018;2023-12-29T12:35:30;5.90;99.90
23669;DHT22;12011;47.422;15.018;2023-12-29T12:40:39;6.00;98.50
23669;DHT22;12011;47.422;15.018;2023-12-29T12:43:14;6.20;99.90
23669;DHT22;12011;47.422;15.018;2023-12-29T12:45:54;6.70;92.70
23669;DHT22;12011;47.422;15.018;2023-12-29T12:48:32;7.20;93.70
23669;DHT22;12011;47.422;15.018;2023-12-29T12:51:07;7.60;90.50
23669;DHT22;12011;47.422;15.018;2023-12-29T12:53:40;8.10;71.10
23669;DHT22;12011;47.422;15.018;2023-12-29T12:56:10;8.40;70.20
23669;DHT22;12011;47.422;15.018;2023-12-29T12:58:41;8.90;75.80
23669;DHT22;12011;47.422;15.018;2023-12-29T13:01:10;9.00;69.80
23669;DHT22;12011;47.422;15.018;2023-12-29T13:03:40;9.20;63.50
23669;DHT22;12011;47.422;15.018;2023-12-29T13:06:14;9.30;60.80
23669;DHT22;12011;47.422;15.018;2023-12-29T13:08:44;9.60;62.10
23669;DHT22;12011;47.422;15.018;2023-12-29T13:11:14;9.70;58.60
23669;DHT22;12011;47.422;15.018;2023-12-29T13:13:51;9.40;60.70
23669;DHT22;12011;47.422;15.018;2023-12-29T13:16:32;9.30;61.80
23669;DHT22;12011;47.422;15.018;2023-12-29T13:19:17;9.20;63.10
23669;DHT22;12011;47.422;15.018;2023-12-29T13:21:53;8.60;62.60
23669;DHT22;12011;47.422;15.018;2023-12-29T13:24:24;8.30;64.60
23669;DHT22;12011;47.422;15.018;2023-12-29T13:26:58;7.90;69.10
23669;DHT22;12011;47.422;15.018;2023-12-29T13:29:35;7.70;68.90
23669;DHT22;12011;47.422;15.018;2023-12-29T13:32:10;7.30;80.10
23669;DHT22;12011;47.422;15.018;2023-12-29T13:34:51;7.00;81.90
23669;DHT22;12011;47.422;15.018;2023-12-29T13:37:33;6.70;86.40
23669;DHT22;12011;47.422;15.018;2023-12-29T13:40:13;6.30;92.00
23669;DHT22;12011;47.422;15.018;2023-12-29T13:42:48;6.10;94.80
23669;DHT22;12011;47.422;15.018;2023-12-29T13:45:19;5.90;99.20
23669;DHT22;12011;47.422;15.018;2023-12-29T13:47:49;5.90;99.90
23669;DHT22;12011;47.422;15.018;2023-12-29T13:50:20;5.70;99.90
23669;DHT22;12011;47.422;15.018;2023-12-29T13:52:52;5.50;99.90
23669;DHT22;12011;47.422;15.018;2023-12-29T13:55:22;5.30;99.90
23669;DHT22;12011;47.422;15.018;2023-12-29T13:57:52;5.10;99.90
23669;DHT22;12011;47.422;15.018;2023-12-29T14:00:25;5.10;99.90
23669;DHT22;12011;47.422;15.018;2023-12-29T14:03:05;4.90;99.90
23669;DHT22;12011;47.422;15.018;2023-12-29T14:05:39;4.70;99.90
23669;DHT22;12011;47.422;15.018;2023-12-29T14:08:24;4.80;99.90
23669;DHT22;12011;47.422;15.018;2023-12-29T14:10:55;4.80;99.90
23669;DHT22;12011;47.422;15.018;2023-12-29T14:13:26;4.50;99.90
23669;DHT22;12011;47.422;15.018;2023-12-29T14:15:53;4.40;99.90
23669;DHT22;12011;47.422;15.018;2023-12-29T14:18:54;4.40;99.90
23669;DHT22;12011;47.422;15.018;2023-12-29T14:21:28;4.30;99.90
23669;DHT22;12011;47.422;15.018;2023-12-29T14:24:06;4.30;99.90
23669;DHT22;12011;47.422;15.018;2023-12-29T14:26:37;4.30;99.90
23669;DHT22;12011;47.422;15.018;2023-12-29T14:29:08;4.30;99.90
23669;DHT22;12011;47.422;15.018;2023-12-29T14:31:39;4.20;99.90
23669;DHT22;12011;47.422;15.018;2023-12-29T14:34:11;4.10;99.90
23669;DHT22;12011;47.422;15.018;2023-12-29T14:36:42;3.80;99.90
23669;DHT22;12011;47.422;15.018;2023-12-29T14:39:14;3.80;99.90
23669;DHT22;12011;47.422;15.018;2023-12-29T14:41:44;3.70;99.90
23669;DHT22;12011;47.422;15.018;2023-12-29T14:44:14;3.40;99.90
23669;DHT22;12011;47.422;15.018;2023-12-29T14:46:43;3.20;99.90
23669;DHT22;12011;47.422;15.018;2023-12-29T14:49:13;3.30;99.90
23669;DHT22;12011;47.422;15.018;2023-12-29T14:51:42;3.20;99.90
23669;DHT22;12011;47.422;15.018;2023-12-29T14:54:14;3.10;99.90
23669;DHT22;12011;47.422;15.018;2023-12-29T14:56:44;2.90;99.90
23669;DHT22;12011;47.422;15.018;2023-12-29T14:59:13;2.60;99.90
23669;DHT22;12011;47.422;15.018;2023-12-29T15:01:43;2.60;99.90
23669;DHT22;12011;47.422;15.018;2023-12-29T15:04:12;2.50;99.90
23669;DHT22;12011;47.422;15.018;2023-12-29T15:06:42;2.60;99.90
23669;DHT22;12011;47.422;15.018;2023-12-29T15:09:14;2.60;99.90
23669;DHT22;12011;47.422;15.018;2023-12-29T15:11:44;2.40;99.90
23669;DHT22;12011;47.422;15.018;2023-12-29T15:14:15;2.10;99.90
23669;DHT22;12011;47.422;15.018;2023-12-29T15:16:45;1.70;99.90
23669;DHT22;12011;47.422;15.018;2023-12-29T15:19:15;1.50;99.90
23669;DHT22;12011;47.422;15.018;2023-12-29T15:21:45;1.50;99.90
23669;DHT22;12011;47.422;15.018;2023-12-29T15:24:21;1.50;99.90
23669;DHT22;12011;47.422;15.018;2023-12-29T15:26:51;1.50;99.90
23669;DHT22;12011;47.422;15.018;2023-12-29T15:29:21;1.40;99.90
23669;DHT22;12011;47.422;15.018;2023-12-29T15:31:50;1.50;99.90
23669;DHT22;12011;47.422;15.018;2023-12-29T15:34:19;1.50;99.90
23669;DHT22;12011;47.422;15.018;2023-12-29T15:36:49;1.70;99.90
23669;DHT22;12011;47.422;15.018;2023-12-29T15:39:21;1.40;99.90
23669;DHT22;12011;47.422;15.018;2023-12-29T15:41:50;1.30;99.90
23669;DHT22;12011;47.422;15.018;2023-12-29T15:44:20;1.30;99.90
23669;DHT22;12011;47.422;15.018;2023-12-29T15:46:50;1.20;99.90
23669;DHT22;12011;47.422;15.018;2023-12-29T15:49:21;1.10;99.90
23669;DHT22;12011;47.422;15.018;2023-12-29T15:51:50;1.00;99.90
23669;DHT22;12011;47.422;15.018;2023-12-29T15:54:22;0.80;99.90
23669;DHT22;12011;47.422;15.018;2023-12-29T15:56:52;0.70;99.90
23669;DHT22;12011;47.422;15.018;2023-12-29T15:59:21;0.70;99.90
23669;DHT22;12011;47.422;15.018;2023-12-29T16:01:51;0.50;99.90
23669;DHT22;12011;47.422;15.018;2023-12-29T16:04:20;0.40;99.90
23669;DHT22;12011;47.422;15.018;2023-12-29T16:06:50;0.30;99.90
23669;DHT22;12011;47.422;15.018;2023-12-29T16:09:22;0.60;99.90
23669;DHT22;12011;47.422;15.018;2023-12-29T16:11:52;1.20;99.90
23669;DHT22;12011;47.422;15.018;2023-12-29T16:14:22;-0.10;99.90
23669;DHT22;12011;47.422;15.018;2023-12-29T16:16:54;-0.10;99.90
23669;DHT22;12011;47.422;15.018;2023-12-29T16:19:23;0.00;99.90
23669;DHT22;12011;47.422;15.018;2023-12-29T16:21:53;0.70;99.90
23669;DHT22;12011;47.422;15.018;2023-12-29T16:24:25;0.70;99.90
23669;DHT22;12011;47.422;15.018;2023-12-29T16:26:54;0.20;99.90
23669;DHT22;12011;47.422;15.018;2023-12-29T16:29:24;-0.10;99.90
23669;DHT22;12011;47.422;15.018;2023-12-29T16:31:54;0.80;99.90
23669;DHT22;12011;47.422;15.018;2023-12-29T16:34:23;0.40;99.90